AV - LB | Pilotos de la V.A




 METAR AND TAF INFORMATION
METAR FOR VYYY
ADDS - METARS form results

(0240 UTC 19 May 2021)
Data provider http://aviationweather.gov/metar/data/
 
METAR text: VYYY 190230Z 26008G15KT 8000 SCT020 SCT120 32/25 Q1008 NOSIG
Conditions at: VYYY (YANGON INTL MYAN, VN) observed 0230 UTC 19 May 2021
Temperature: 32.0°C (90°F)
Dewpoint: 25.0°C (77°F) [RH = 67%]
Pressure (altimeter): 29.76 inches Hg (1008.0 mb)
Winds: from the W (260 degrees) at 9 MPH (8 knots; 4.1 m/s)
gusting to 17 MPH (15 knots; 7.7 m/s)
Visibility: 5 miles ( 8 km)
Ceiling: at least 12,000 feet AGL
Clouds: scattered clouds at 2000 feet AGL
scattered clouds at 12000 feet AGL
Weather: no significant weather observed at this time

METAR text: VYYY 190200Z 26008KT 8000 SCT020 FEW030TCU SCT110 31/25 Q1008 NOSIG
Conditions at: VYYY (YANGON INTL MYAN, VN) observed 0200 UTC 19 May 2021
Temperature: 31.0°C (88°F)
Dewpoint: 25.0°C (77°F) [RH = 71%]
Pressure (altimeter): 29.76 inches Hg (1008.0 mb)
Winds: from the W (260 degrees) at 9 MPH (8 knots; 4.1 m/s)
Visibility: 5 miles ( 8 km)
Ceiling: at least 12,000 feet AGL
Clouds: scattered clouds at 2000 feet AGL
few clouds at 3000 feet AGL
scattered clouds at 11000 feet AGL
Weather: no significant weather observed at this time

Forecast for: VYYY (YANGON INTL MYAN, VN)
Text: TAF VYYY 182300Z 1900/1924 26005KT 8000 SCT035 SCT110
Forecast period: 0000 UTC 19 May 2021 to 0000 UTC 20 May 2021
Forecast type: FROM: standard forecast or significant change
Winds: from the W (260 degrees) at 6 MPH (5 knots; 2.6 m/s)
Visibility: 5 miles (8 km)
Ceiling: at least 12,000 feet AGL
Clouds: scattered clouds at 3500 feet AGL
scattered clouds at 11000 feet AGL
Weather: no significant weather forecast for this period
Text: TEMPO 1906/1912 26007KT 7000 SCT030 FEW035TCU SCT100
Forecast period: 0600 to 1200 UTC 19 May 2021
Forecast type: TEMPORARY: The following changes expected for less than half the time period
Winds: from the W (260 degrees) at 8 MPH (7 knots; 3.6 m/s)
Visibility: 4 miles (7 km)
Ceiling: at least 12,000 feet AGL
Clouds: scattered clouds at 3000 feet AGL
few clouds at 3500 feet AGL
scattered clouds at 10000 feet AGL
Weather: no significant weather forecast for this period

 AIRPORT MAP

 RUNWAY INFORMATION
Runway 03 Runway length 11200 ft Runway width 200 ft
Runway elevation 109 ft Runway displaced threshold 0 ft Runway heading 33
Runway 21 Runway length 11200 ft Runway width 200 ft
Runway elevation 65 ft Runway displaced threshold 275 ft Runway heading 213

 AIRPORT FREQUENCIES
Type APP Name MINGALADON Frequency 119.7 MHZ
Type ATIS Name ATIS Frequency 128.4 MHZ
Type GND Name MINGALADON Frequency 121.9 MHZ
Type TWR Name MINGALADON Frequency 118.1 MHZ

 AIRPORT NEAR NAVIGATION AIDS
Type NDB Name Mingaladon Frequency 397 KHZ
Type NDB Name Yangon Frequency 265 KHZ